sensor_id;sensor_type;location;lat;lon;timestamp;P1;durP1;ratioP1;P2;durP2;ratioP2
9970;SDS011;5026;51.494;11.974;2024-01-15T00:00:59;18.50;;;9.93;;
9970;SDS011;5026;51.494;11.974;2024-01-15T00:03:26;16.27;;;9.07;;
9970;SDS011;5026;51.494;11.974;2024-01-15T00:05:55;16.67;;;8.83;;
9970;SDS011;5026;51.494;11.974;2024-01-15T00:08:21;16.60;;;8.73;;
9970;SDS011;5026;51.494;11.974;2024-01-15T00:10:48;16.17;;;8.77;;
9970;SDS011;5026;51.494;11.974;2024-01-15T00:13:15;18.30;;;8.97;;
9970;SDS011;5026;51.494;11.974;2024-01-15T00:15:42;18.37;;;9.20;;
9970;SDS011;5026;51.494;11.974;2024-01-15T00:18:09;22.53;;;9.60;;
9970;SDS011;5026;51.494;11.974;2024-01-15T00:20:36;16.63;;;8.73;;
9970;SDS011;5026;51.494;11.974;2024-01-15T00:23:05;16.93;;;8.43;;
9970;SDS011;5026;51.494;11.974;2024-01-15T00:25:32;17.93;;;8.50;;
9970;SDS011;5026;51.494;11.974;2024-01-15T00:27:59;17.47;;;8.43;;
9970;SDS011;5026;51.494;11.974;2024-01-15T00:30:26;17.53;;;9.43;;
9970;SDS011;5026;51.494;11.974;2024-01-15T00:32:53;19.93;;;10.00;;
9970;SDS011;5026;51.494;11.974;2024-01-15T00:35:20;20.80;;;10.23;;
9970;SDS011;5026;51.494;11.974;2024-01-15T00:37:47;18.00;;;9.10;;
9970;SDS011;5026;51.494;11.974;2024-01-15T00:40:15;16.73;;;8.67;;
9970;SDS011;5026;51.494;11.974;2024-01-15T00:42:42;17.10;;;9.27;;
9970;SDS011;5026;51.494;11.974;2024-01-15T00:45:09;20.47;;;10.17;;
9970;SDS011;5026;51.494;11.974;2024-01-15T00:47:36;19.40;;;9.50;;
9970;SDS011;5026;51.494;11.974;2024-01-15T00:50:06;16.40;;;8.53;;
9970;SDS011;5026;51.494;11.974;2024-01-15T00:52:34;17.43;;;9.57;;
9970;SDS011;5026;51.494;11.974;2024-01-15T00:55:01;16.00;;;8.53;;
9970;SDS011;5026;51.494;11.974;2024-01-15T00:57:29;19.67;;;9.00;;
9970;SDS011;5026;51.494;11.974;2024-01-15T00:59:56;17.00;;;9.67;;
9970;SDS011;5026;51.494;11.974;2024-01-15T01:02:23;17.83;;;9.50;;
9970;SDS011;5026;51.494;11.974;2024-01-15T01:04:50;17.27;;;8.93;;
9970;SDS011;5026;51.494;11.974;2024-01-15T01:07:17;15.57;;;8.93;;
9970;SDS011;5026;51.494;11.974;2024-01-15T01:09:44;17.50;;;9.67;;
9970;SDS011;5026;51.494;11.974;2024-01-15T01:12:13;18.60;;;8.97;;
9970;SDS011;5026;51.494;11.974;2024-01-15T01:14:41;20.10;;;9.97;;
9970;SDS011;5026;51.494;11.974;2024-01-15T01:17:08;21.23;;;9.37;;
9970;SDS011;5026;51.494;11.974;2024-01-15T01:19:35;21.30;;;9.47;;
9970;SDS011;5026;51.494;11.974;2024-01-15T01:22:02;16.80;;;9.87;;
9970;SDS011;5026;51.494;11.974;2024-01-15T01:24:29;18.90;;;9.93;;
9970;SDS011;5026;51.494;11.974;2024-01-15T01:26:56;20.53;;;9.63;;
9970;SDS011;5026;51.494;11.974;2024-01-15T01:29:23;19.60;;;9.43;;
9970;SDS011;5026;51.494;11.974;2024-01-15T01:31:52;17.37;;;9.50;;
9970;SDS011;5026;51.494;11.974;2024-01-15T01:34:19;19.47;;;10.50;;
9970;SDS011;5026;51.494;11.974;2024-01-15T01:36:46;17.77;;;9.00;;
9970;SDS011;5026;51.494;11.974;2024-01-15T01:39:13;23.47;;;10.50;;
9970;SDS011;5026;51.494;11.974;2024-01-15T01:41:40;23.10;;;10.50;;
9970;SDS011;5026;51.494;11.974;2024-01-15T01:44:08;18.97;;;9.60;;
9970;SDS011;5026;51.494;11.974;2024-01-15T01:46:35;20.77;;;10.13;;
9970;SDS011;5026;51.494;11.974;2024-01-15T01:49:06;17.67;;;9.47;;
9970;SDS011;5026;51.494;11.974;2024-01-15T01:51:35;20.30;;;9.20;;
9970;SDS011;5026;51.494;11.974;2024-01-15T01:54:02;19.93;;;9.77;;
9970;SDS011;5026;51.494;11.974;2024-01-15T01:56:30;19.47;;;9.90;;
9970;SDS011;5026;51.494;11.974;2024-01-15T01:58:57;22.57;;;10.77;;
9970;SDS011;5026;51.494;11.974;2024-01-15T02:01:24;20.80;;;9.40;;
9970;SDS011;5026;51.494;11.974;2024-01-15T02:03:51;18.87;;;8.70;;
9970;SDS011;5026;51.494;11.974;2024-01-15T02:06:22;19.77;;;10.40;;
9970;SDS011;5026;51.494;11.974;2024-01-15T02:08:50;19.97;;;9.27;;
9970;SDS011;5026;51.494;11.974;2024-01-15T02:11:17;17.67;;;9.60;;
9970;SDS011;5026;51.494;11.974;2024-01-15T02:13:44;17.73;;;8.93;;
9970;SDS011;5026;51.494;11.974;2024-01-15T02:16:11;18.97;;;9.53;;
9970;SDS011;5026;51.494;11.974;2024-01-15T02:18:41;18.27;;;9.47;;
9970;SDS011;5026;51.494;11.974;2024-01-15T02:21:09;20.27;;;9.90;;
9970;SDS011;5026;51.494;11.974;2024-01-15T02:23:38;19.53;;;9.87;;
9970;SDS011;5026;51.494;11.974;2024-01-15T02:26:05;20.53;;;9.47;;
9970;SDS011;5026;51.494;11.974;2024-01-15T02:28:33;19.67;;;9.10;;
9970;SDS011;5026;51.494;11.974;2024-01-15T02:31:00;21.80;;;10.00;;
9970;SDS011;5026;51.494;11.974;2024-01-15T02:33:27;19.03;;;9.83;;
9970;SDS011;5026;51.494;11.974;2024-01-15T02:35:54;20.90;;;10.27;;
9970;SDS011;5026;51.494;11.974;2024-01-15T02:38:21;21.03;;;9.27;;
9970;SDS011;5026;51.494;11.974;2024-01-15T02:40:50;17.97;;;8.90;;
9970;SDS011;5026;51.494;11.974;2024-01-15T02:43:17;17.90;;;8.93;;
9970;SDS011;5026;51.494;11.974;2024-01-15T02:45:44;17.33;;;9.67;;
9970;SDS011;5026;51.494;11.974;2024-01-15T02:48:12;15.57;;;8.10;;
9970;SDS011;5026;51.494;11.974;2024-01-15T02:50:39;15.90;;;8.63;;
9970;SDS011;5026;51.494;11.974;2024-01-15T02:53:06;15.50;;;8.30;;
9970;SDS011;5026;51.494;11.974;2024-01-15T02:55:33;15.70;;;7.50;;
9970;SDS011;5026;51.494;11.974;2024-01-15T02:58:01;18.57;;;8.10;;
9970;SDS011;5026;51.494;11.974;2024-01-15T03:00:28;19.50;;;9.43;;
9970;SDS011;5026;51.494;11.974;2024-01-15T03:02:55;18.40;;;8.87;;
9970;SDS011;5026;51.494;11.974;2024-01-15T03:05:22;18.17;;;9.97;;
9970;SDS011;5026;51.494;11.974;2024-01-15T03:07:49;14.87;;;7.83;;
9970;SDS011;5026;51.494;11.974;2024-01-15T03:10:16;15.00;;;8.43;;
9970;SDS011;5026;51.494;11.974;2024-01-15T03:12:43;16.67;;;8.07;;
9970;SDS011;5026;51.494;11.974;2024-01-15T03:15:11;16.17;;;8.47;;
9970;SDS011;5026;51.494;11.974;2024-01-15T03:17:38;17.57;;;8.17;;
9970;SDS011;5026;51.494;11.974;2024-01-15T03:20:07;18.67;;;8.33;;
9970;SDS011;5026;51.494;11.974;2024-01-15T03:22:35;20.00;;;9.80;;
9970;SDS011;5026;51.494;11.974;2024-01-15T03:25:02;20.33;;;9.17;;
9970;SDS011;5026;51.494;11.974;2024-01-15T03:27:29;17.57;;;9.33;;
9970;SDS011;5026;51.494;11.974;2024-01-15T03:29:56;18.80;;;8.50;;
9970;SDS011;5026;51.494;11.974;2024-01-15T03:32:25;17.63;;;8.13;;
9970;SDS011;5026;51.494;11.974;2024-01-15T03:34:52;19.83;;;9.47;;
9970;SDS011;5026;51.494;11.974;2024-01-15T03:37:18;18.67;;;8.37;;
9970;SDS011;5026;51.494;11.974;2024-01-15T03:39:45;16.70;;;7.90;;
9970;SDS011;5026;51.494;11.974;2024-01-15T03:42:12;20.97;;;8.63;;
9970;SDS011;5026;51.494;11.974;2024-01-15T03:44:40;17.83;;;8.40;;
9970;SDS011;5026;51.494;11.974;2024-01-15T03:47:07;20.23;;;8.80;;
9970;SDS011;5026;51.494;11.974;2024-01-15T03:49:35;20.43;;;8.37;;
9970;SDS011;5026;51.494;11.974;2024-01-15T03:52:02;15.87;;;8.03;;
9970;SDS011;5026;51.494;11.974;2024-01-15T03:54:29;17.43;;;8.47;;
9970;SDS011;5026;51.494;11.974;2024-01-15T03:56:56;14.43;;;7.63;;
9970;SDS011;5026;51.494;11.974;2024-01-15T03:59:23;22.03;;;8.73;;
9970;SDS011;5026;51.494;11.974;2024-01-15T04:01:50;18.00;;;8.23;;
9970;SDS011;5026;51.494;11.974;2024-01-15T04:04:17;18.10;;;8.17;;
9970;SDS011;5026;51.494;11.974;2024-01-15T04:06:46;17.17;;;7.13;;
9970;SDS011;5026;51.494;11.974;2024-01-15T04:09:13;20.33;;;8.33;;
9970;SDS011;5026;51.494;11.974;2024-01-15T04:11:40;15.40;;;7.73;;
9970;SDS011;5026;51.494;11.974;2024-01-15T04:14:07;15.30;;;7.37;;
9970;SDS011;5026;51.494;11.974;2024-01-15T04:16:34;15.93;;;6.73;;
9970;SDS011;5026;51.494;11.974;2024-01-15T04:19:01;15.97;;;7.63;;
9970;SDS011;5026;51.494;11.974;2024-01-15T04:21:28;13.87;;;6.90;;
9970;SDS011;5026;51.494;11.974;2024-01-15T04:23:57;12.43;;;6.60;;
9970;SDS011;5026;51.494;11.974;2024-01-15T04:26:23;11.60;;;6.70;;
9970;SDS011;5026;51.494;11.974;2024-01-15T04:28:50;12.93;;;6.37;;
9970;SDS011;5026;51.494;11.974;2024-01-15T04:31:21;12.63;;;7.17;;
9970;SDS011;5026;51.494;11.974;2024-01-15T04:33:49;11.37;;;6.30;;
9970;SDS011;5026;51.494;11.974;2024-01-15T04:36:16;13.50;;;6.93;;
9970;SDS011;5026;51.494;11.974;2024-01-15T04:38:43;12.80;;;6.70;;
9970;SDS011;5026;51.494;11.974;2024-01-15T04:41:12;13.23;;;7.63;;
9970;SDS011;5026;51.494;11.974;2024-01-15T04:43:39;17.27;;;7.30;;
9970;SDS011;5026;51.494;11.974;2024-01-15T04:46:06;13.33;;;6.00;;
9970;SDS011;5026;51.494;11.974;2024-01-15T04:48:33;11.00;;;6.67;;
9970;SDS011;5026;51.494;11.974;2024-01-15T04:51:00;14.43;;;6.23;;
9970;SDS011;5026;51.494;11.974;2024-01-15T04:53:29;16.00;;;6.00;;
9970;SDS011;5026;51.494;11.974;2024-01-15T04:55:56;13.50;;;7.00;;
9970;SDS011;5026;51.494;11.974;2024-01-15T04:58:25;10.33;;;5.17;;
9970;SDS011;5026;51.494;11.974;2024-01-15T05:00:52;10.70;;;5.50;;
9970;SDS011;5026;51.494;11.974;2024-01-15T05:03:19;9.27;;;5.07;;
9970;SDS011;5026;51.494;11.974;2024-01-15T05:05:46;12.37;;;5.30;;
9970;SDS011;5026;51.494;11.974;2024-01-15T05:08:13;11.77;;;5.57;;
9970;SDS011;5026;51.494;11.974;2024-01-15T05:10:40;10.80;;;5.43;;
9970;SDS011;5026;51.494;11.974;2024-01-15T05:13:07;12.53;;;5.43;;
9970;SDS011;5026;51.494;11.974;2024-01-15T05:15:35;9.23;;;5.10;;
9970;SDS011;5026;51.494;11.974;2024-01-15T05:18:02;15.77;;;6.93;;
9970;SDS011;5026;51.494;11.974;2024-01-15T05:20:30;10.13;;;5.53;;
9970;SDS011;5026;51.494;11.974;2024-01-15T05:22:57;12.10;;;5.60;;
9970;SDS011;5026;51.494;11.974;2024-01-15T05:25:24;10.63;;;5.70;;
9970;SDS011;5026;51.494;11.974;2024-01-15T05:27:51;12.93;;;6.33;;
9970;SDS011;5026;51.494;11.974;2024-01-15T05:30:18;14.57;;;6.23;;
9970;SDS011;5026;51.494;11.974;2024-01-15T05:32:46;13.20;;;6.03;;
9970;SDS011;5026;51.494;11.974;2024-01-15T05:35:13;12.10;;;6.23;;
9970;SDS011;5026;51.494;11.974;2024-01-15T05:37:42;11.60;;;6.33;;
9970;SDS011;5026;51.494;11.974;2024-01-15T05:40:10;11.88;;;6.82;;
9970;SDS011;5026;51.494;11.974;2024-01-15T05:42:38;10.67;;;5.60;;
9970;SDS011;5026;51.494;11.974;2024-01-15T05:45:06;10.00;;;5.83;;
9970;SDS011;5026;51.494;11.974;2024-01-15T05:47:33;11.60;;;5.33;;
9970;SDS011;5026;51.494;11.974;2024-01-15T05:50:02;7.37;;;5.03;;
9970;SDS011;5026;51.494;11.974;2024-01-15T05:52:30;12.53;;;5.33;;
9970;SDS011;5026;51.494;11.974;2024-01-15T05:54:57;10.03;;;5.50;;
9970;SDS011;5026;51.494;11.974;2024-01-15T05:57:24;8.67;;;4.90;;
9970;SDS011;5026;51.494;11.974;2024-01-15T05:59:51;8.43;;;5.07;;
9970;SDS011;5026;51.494;11.974;2024-01-15T06:02:18;10.73;;;6.17;;
9970;SDS011;5026;51.494;11.974;2024-01-15T06:04:45;10.23;;;5.43;;
9970;SDS011;5026;51.494;11.974;2024-01-15T06:07:14;8.63;;;5.10;;
9970;SDS011;5026;51.494;11.974;2024-01-15T06:09:41;12.60;;;5.30;;
9970;SDS011;5026;51.494;11.974;2024-01-15T06:12:08;10.33;;;5.83;;
9970;SDS011;5026;51.494;11.974;2024-01-15T06:14:35;10.47;;;5.20;;
9970;SDS011;5026;51.494;11.974;2024-01-15T06:17:02;11.87;;;5.80;;
9970;SDS011;5026;51.494;11.974;2024-01-15T06:19:29;11.17;;;5.73;;
9970;SDS011;5026;51.494;11.974;2024-01-15T06:21:56;11.47;;;5.17;;
9970;SDS011;5026;51.494;11.974;2024-01-15T06:24:24;8.90;;;5.17;;
9970;SDS011;5026;51.494;11.974;2024-01-15T06:26:51;10.93;;;6.57;;
9970;SDS011;5026;51.494;11.974;2024-01-15T06:29:18;13.50;;;5.90;;
9970;SDS011;5026;51.494;11.974;2024-01-15T06:31:45;10.17;;;5.57;;
9970;SDS011;5026;51.494;11.974;2024-01-15T06:34:13;10.97;;;5.87;;
9970;SDS011;5026;51.494;11.974;2024-01-15T06:36:41;10.60;;;5.77;;
9970;SDS011;5026;51.494;11.974;2024-01-15T06:39:08;8.67;;;4.57;;
9970;SDS011;5026;51.494;11.974;2024-01-15T06:41:37;8.53;;;5.07;;
9970;SDS011;5026;51.494;11.974;2024-01-15T06:44:08;10.50;;;5.77;;
9970;SDS011;5026;51.494;11.974;2024-01-15T06:46:35;9.53;;;4.83;;
9970;SDS011;5026;51.494;11.974;2024-01-15T06:49:02;8.83;;;5.40;;
9970;SDS011;5026;51.494;11.974;2024-01-15T06:51:29;11.33;;;5.20;;
9970;SDS011;5026;51.494;11.974;2024-01-15T06:53:56;10.60;;;5.00;;
9970;SDS011;5026;51.494;11.974;2024-01-15T06:56:23;10.43;;;5.20;;
9970;SDS011;5026;51.494;11.974;2024-01-15T06:58:51;10.27;;;5.67;;
9970;SDS011;5026;51.494;11.974;2024-01-15T07:01:18;11.87;;;5.37;;
9970;SDS011;5026;51.494;11.974;2024-01-15T07:03:45;9.37;;;5.00;;
9970;SDS011;5026;51.494;11.974;2024-01-15T07:06:12;8.40;;;5.10;;
9970;SDS011;5026;51.494;11.974;2024-01-15T07:08:40;8.77;;;5.67;;
9970;SDS011;5026;51.494;11.974;2024-01-15T07:11:07;7.33;;;4.97;;
9970;SDS011;5026;51.494;11.974;2024-01-15T07:13:35;10.20;;;5.07;;
9970;SDS011;5026;51.494;11.974;2024-01-15T07:16:04;13.10;;;5.73;;
9970;SDS011;5026;51.494;11.974;2024-01-15T07:18:32;9.80;;;5.60;;
9970;SDS011;5026;51.494;11.974;2024-01-15T07:20:59;7.63;;;5.33;;
9970;SDS011;5026;51.494;11.974;2024-01-15T07:23:27;7.40;;;4.77;;
9970;SDS011;5026;51.494;11.974;2024-01-15T07:25:54;11.23;;;5.90;;
9970;SDS011;5026;51.494;11.974;2024-01-15T07:28:21;8.67;;;5.60;;
9970;SDS011;5026;51.494;11.974;2024-01-15T07:30:48;7.83;;;5.47;;
9970;SDS011;5026;51.494;11.974;2024-01-15T07:33:17;8.43;;;4.90;;
9970;SDS011;5026;51.494;11.974;2024-01-15T07:35:44;10.03;;;5.33;;
9970;SDS011;5026;51.494;11.974;2024-01-15T07:38:11;10.07;;;5.13;;
9970;SDS011;5026;51.494;11.974;2024-01-15T07:40:38;9.50;;;5.43;;
9970;SDS011;5026;51.494;11.974;2024-01-15T07:43:05;9.60;;;5.73;;
9970;SDS011;5026;51.494;11.974;2024-01-15T07:45:34;11.43;;;5.87;;
9970;SDS011;5026;51.494;11.974;2024-01-15T07:48:01;10.33;;;5.60;;
9970;SDS011;5026;51.494;11.974;2024-01-15T07:50:30;9.40;;;6.53;;
9970;SDS011;5026;51.494;11.974;2024-01-15T07:52:57;7.97;;;5.20;;
9970;SDS011;5026;51.494;11.974;2024-01-15T07:55:24;10.80;;;5.37;;
9970;SDS011;5026;51.494;11.974;2024-01-15T07:57:52;11.60;;;5.83;;
9970;SDS011;5026;51.494;11.974;2024-01-15T08:00:23;9.57;;;5.50;;
9970;SDS011;5026;51.494;11.974;2024-01-15T08:02:51;7.63;;;5.77;;
9970;SDS011;5026;51.494;11.974;2024-01-15T08:05:18;11.63;;;5.47;;
9970;SDS011;5026;51.494;11.974;2024-01-15T08:07:47;9.63;;;5.53;;
9970;SDS011;5026;51.494;11.974;2024-01-15T08:10:14;10.97;;;5.80;;
9970;SDS011;5026;51.494;11.974;2024-01-15T08:12:41;12.17;;;5.90;;
9970;SDS011;5026;51.494;11.974;2024-01-15T08:15:08;12.20;;;6.00;;
9970;SDS011;5026;51.494;11.974;2024-01-15T08:17:36;9.37;;;4.73;;
9970;SDS011;5026;51.494;11.974;2024-01-15T08:20:03;11.63;;;5.73;;
9970;SDS011;5026;51.494;11.974;2024-01-15T08:22:31;9.70;;;5.40;;
9970;SDS011;5026;51.494;11.974;2024-01-15T08:24:59;9.53;;;6.13;;
9970;SDS011;5026;51.494;11.974;2024-01-15T08:27:26;10.63;;;6.27;;
9970;SDS011;5026;51.494;11.974;2024-01-15T08:29:53;9.17;;;5.00;;
9970;SDS011;5026;51.494;11.974;2024-01-15T08:32:20;11.13;;;5.37;;
9970;SDS011;5026;51.494;11.974;2024-01-15T08:34:47;9.10;;;5.83;;
9970;SDS011;5026;51.494;11.974;2024-01-15T08:37:17;10.47;;;4.90;;
9970;SDS011;5026;51.494;11.974;2024-01-15T08:39:44;10.23;;;4.97;;
9970;SDS011;5026;51.494;11.974;2024-01-15T08:42:12;10.43;;;5.63;;
9970;SDS011;5026;51.494;11.974;2024-01-15T08:44:39;8.33;;;5.10;;
9970;SDS011;5026;51.494;11.974;2024-01-15T08:47:08;7.37;;;4.90;;
9970;SDS011;5026;51.494;11.974;2024-01-15T08:49:36;8.43;;;4.77;;
9970;SDS011;5026;51.494;11.974;2024-01-15T08:52:03;8.70;;;4.63;;
9970;SDS011;5026;51.494;11.974;2024-01-15T08:54:30;12.80;;;5.43;;
9970;SDS011;5026;51.494;11.974;2024-01-15T08:56:57;11.20;;;5.70;;
9970;SDS011;5026;51.494;11.974;2024-01-15T08:59:26;7.60;;;4.73;;
9970;SDS011;5026;51.494;11.974;2024-01-15T09:01:53;14.20;;;5.83;;
9970;SDS011;5026;51.494;11.974;2024-01-15T09:04:22;8.90;;;5.30;;
9970;SDS011;5026;51.494;11.974;2024-01-15T09:06:50;9.70;;;5.53;;
9970;SDS011;5026;51.494;11.974;2024-01-15T09:09:17;11.77;;;5.60;;
9970;SDS011;5026;51.494;11.974;2024-01-15T09:11:44;13.63;;;5.80;;
9970;SDS011;5026;51.494;11.974;2024-01-15T09:14:11;8.40;;;5.10;;
9970;SDS011;5026;51.494;11.974;2024-01-15T09:16:40;8.33;;;4.80;;
9970;SDS011;5026;51.494;11.974;2024-01-15T09:19:08;9.13;;;5.50;;
9970;SDS011;5026;51.494;11.974;2024-01-15T09:21:37;12.33;;;5.63;;
9970;SDS011;5026;51.494;11.974;2024-01-15T09:24:05;9.20;;;5.10;;
9970;SDS011;5026;51.494;11.974;2024-01-15T09:26:32;9.27;;;5.17;;
9970;SDS011;5026;51.494;11.974;2024-01-15T09:28:59;10.00;;;5.03;;
9970;SDS011;5026;51.494;11.974;2024-01-15T09:31:28;6.70;;;4.20;;
9970;SDS011;5026;51.494;11.974;2024-01-15T09:33:56;9.50;;;4.60;;
9970;SDS011;5026;51.494;11.974;2024-01-15T09:36:25;8.40;;;5.07;;
9970;SDS011;5026;51.494;11.974;2024-01-15T09:38:52;7.93;;;4.87;;
9970;SDS011;5026;51.494;11.974;2024-01-15T09:41:19;9.37;;;4.97;;
9970;SDS011;5026;51.494;11.974;2024-01-15T09:43:46;7.10;;;4.50;;
9970;SDS011;5026;51.494;11.974;2024-01-15T09:46:14;7.67;;;5.07;;
9970;SDS011;5026;51.494;11.974;2024-01-15T09:48:42;8.70;;;5.20;;
9970;SDS011;5026;51.494;11.974;2024-01-15T09:51:11;9.20;;;4.90;;
9970;SDS011;5026;51.494;11.974;2024-01-15T09:53:38;8.23;;;4.63;;
9970;SDS011;5026;51.494;11.974;2024-01-15T09:56:07;8.73;;;4.90;;
9970;SDS011;5026;51.494;11.974;2024-01-15T09:58:37;9.67;;;5.17;;
9970;SDS011;5026;51.494;11.974;2024-01-15T10:01:06;10.97;;;5.10;;
9970;SDS011;5026;51.494;11.974;2024-01-15T10:03:34;9.67;;;4.07;;
9970;SDS011;5026;51.494;11.974;2024-01-15T10:06:03;8.67;;;4.90;;
9970;SDS011;5026;51.494;11.974;2024-01-15T10:08:32;7.23;;;4.73;;
9970;SDS011;5026;51.494;11.974;2024-01-15T10:11:00;9.90;;;5.30;;
9970;SDS011;5026;51.494;11.974;2024-01-15T10:13:29;8.03;;;4.33;;
9970;SDS011;5026;51.494;11.974;2024-01-15T10:15:57;9.13;;;4.47;;
9970;SDS011;5026;51.494;11.974;2024-01-15T10:18:24;8.50;;;5.43;;
9970;SDS011;5026;51.494;11.974;2024-01-15T10:20:51;10.10;;;4.63;;
9970;SDS011;5026;51.494;11.974;2024-01-15T10:23:19;9.97;;;5.20;;
9970;SDS011;5026;51.494;11.974;2024-01-15T10:25:47;7.40;;;4.40;;
9970;SDS011;5026;51.494;11.974;2024-01-15T10:28:16;7.67;;;4.87;;
9970;SDS011;5026;51.494;11.974;2024-01-15T10:30:45;10.77;;;4.97;;
9970;SDS011;5026;51.494;11.974;2024-01-15T10:33:12;9.80;;;5.53;;
9970;SDS011;5026;51.494;11.974;2024-01-15T10:35:40;8.70;;;4.90;;
9970;SDS011;5026;51.494;11.974;2024-01-15T10:38:07;10.63;;;5.27;;
9970;SDS011;5026;51.494;11.974;2024-01-15T10:40:34;8.33;;;4.57;;
9970;SDS011;5026;51.494;11.974;2024-01-15T10:43:03;9.23;;;4.83;;
9970;SDS011;5026;51.494;11.974;2024-01-15T10:45:30;9.70;;;4.90;;
9970;SDS011;5026;51.494;11.974;2024-01-15T10:47:57;8.03;;;4.63;;
9970;SDS011;5026;51.494;11.974;2024-01-15T10:50:25;7.13;;;4.43;;
9970;SDS011;5026;51.494;11.974;2024-01-15T10:52:52;9.93;;;4.80;;
9970;SDS011;5026;51.494;11.974;2024-01-15T10:55:20;7.37;;;4.80;;
9970;SDS011;5026;51.494;11.974;2024-01-15T10:57:49;9.50;;;4.93;;
9970;SDS011;5026;51.494;11.974;2024-01-15T11:00:18;7.60;;;4.17;;
9970;SDS011;5026;51.494;11.974;2024-01-15T11:02:46;10.00;;;4.83;;
9970;SDS011;5026;51.494;11.974;2024-01-15T11:05:14;10.93;;;4.73;;
9970;SDS011;5026;51.494;11.974;2024-01-15T11:07:43;9.77;;;4.90;;
9970;SDS011;5026;51.494;11.974;2024-01-15T11:13:05;6.30;;;4.47;;
9970;SDS011;5026;51.494;11.974;2024-01-15T11:18:29;9.90;;;5.73;;
9970;SDS011;5026;51.494;11.974;2024-01-15T11:23:50;8.40;;;4.60;;
9970;SDS011;5026;51.494;11.974;2024-01-15T11:26:35;9.63;;;5.57;;
9970;SDS011;5026;51.494;11.974;2024-01-15T11:29:03;12.83;;;5.10;;
9970;SDS011;5026;51.494;11.974;2024-01-15T11:37:23;7.67;;;4.37;;
9970;SDS011;5026;51.494;11.974;2024-01-15T11:39:52;9.27;;;5.20;;
9970;SDS011;5026;51.494;11.974;2024-01-15T11:42:20;7.97;;;4.60;;
9970;SDS011;5026;51.494;11.974;2024-01-15T11:44:49;10.03;;;4.90;;
9970;SDS011;5026;51.494;11.974;2024-01-15T11:47:27;6.47;;;4.57;;
9970;SDS011;5026;51.494;11.974;2024-01-15T11:50:17;9.67;;;5.37;;
9970;SDS011;5026;51.494;11.974;2024-01-15T11:52:47;11.43;;;5.40;;
9970;SDS011;5026;51.494;11.974;2024-01-15T11:55:25;8.93;;;5.20;;
9970;SDS011;5026;51.494;11.974;2024-01-15T11:57:54;11.93;;;6.57;;
9970;SDS011;5026;51.494;11.974;2024-01-15T12:00:23;7.33;;;4.57;;
9970;SDS011;5026;51.494;11.974;2024-01-15T12:02:52;13.93;;;4.77;;
9970;SDS011;5026;51.494;11.974;2024-01-15T12:05:20;8.37;;;4.87;;
9970;SDS011;5026;51.494;11.974;2024-01-15T12:07:48;8.30;;;4.53;;
9970;SDS011;5026;51.494;11.974;2024-01-15T12:10:16;10.17;;;4.67;;
9970;SDS011;5026;51.494;11.974;2024-01-15T12:12:52;9.73;;;5.20;;
9970;SDS011;5026;51.494;11.974;2024-01-15T12:15:23;9.07;;;4.83;;
9970;SDS011;5026;51.494;11.974;2024-01-15T12:17:52;10.43;;;4.77;;
9970;SDS011;5026;51.494;11.974;2024-01-15T12:20:20;8.07;;;4.73;;
9970;SDS011;5026;51.494;11.974;2024-01-15T12:22:47;14.20;;;5.10;;
9970;SDS011;5026;51.494;11.974;2024-01-15T12:25:14;9.17;;;4.73;;
9970;SDS011;5026;51.494;11.974;2024-01-15T12:27:41;9.20;;;4.47;;
9970;SDS011;5026;51.494;11.974;2024-01-15T12:30:10;6.70;;;4.37;;
9970;SDS011;5026;51.494;11.974;2024-01-15T12:32:38;11.20;;;4.47;;
9970;SDS011;5026;51.494;11.974;2024-01-15T12:35:07;10.90;;;5.03;;
9970;SDS011;5026;51.494;11.974;2024-01-15T12:37:35;6.50;;;4.47;;
9970;SDS011;5026;51.494;11.974;2024-01-15T12:40:02;6.93;;;4.50;;
9970;SDS011;5026;51.494;11.974;2024-01-15T12:42:29;9.90;;;4.93;;
9970;SDS011;5026;51.494;11.974;2024-01-15T12:44:56;6.23;;;3.60;;
9970;SDS011;5026;51.494;11.974;2024-01-15T12:47:23;10.50;;;5.10;;
9970;SDS011;5026;51.494;11.974;2024-01-15T12:49:51;8.53;;;5.30;;
9970;SDS011;5026;51.494;11.974;2024-01-15T12:52:21;7.00;;;4.53;;
9970;SDS011;5026;51.494;11.974;2024-01-15T12:54:48;9.53;;;4.00;;
9970;SDS011;5026;51.494;11.974;2024-01-15T12:57:15;9.17;;;4.57;;
9970;SDS011;5026;51.494;11.974;2024-01-15T12:59:42;5.03;;;3.20;;
9970;SDS011;5026;51.494;11.974;2024-01-15T13:02:10;4.43;;;3.20;;
9970;SDS011;5026;51.494;11.974;2024-01-15T13:04:37;5.47;;;2.90;;
9970;SDS011;5026;51.494;11.974;2024-01-15T13:07:05;5.47;;;3.20;;
9970;SDS011;5026;51.494;11.974;2024-01-15T13:09:33;8.00;;;3.40;;
9970;SDS011;5026;51.494;11.974;2024-01-15T13:12:01;4.60;;;2.80;;
9970;SDS011;5026;51.494;11.974;2024-01-15T13:14:28;3.83;;;2.87;;
9970;SDS011;5026;51.494;11.974;2024-01-15T13:16:55;4.07;;;2.77;;
9970;SDS011;5026;51.494;11.974;2024-01-15T13:19:23;5.97;;;3.00;;
9970;SDS011;5026;51.494;11.974;2024-01-15T13:21:50;4.43;;;3.03;;
9970;SDS011;5026;51.494;11.974;2024-01-15T13:24:18;6.77;;;3.70;;
9970;SDS011;5026;51.494;11.974;2024-01-15T13:26:46;8.17;;;3.70;;
9970;SDS011;5026;51.494;11.974;2024-01-15T13:29:14;5.47;;;3.80;;
9970;SDS011;5026;51.494;11.974;2024-01-15T13:31:41;9.73;;;3.83;;
9970;SDS011;5026;51.494;11.974;2024-01-15T13:34:08;8.27;;;3.80;;
9970;SDS011;5026;51.494;11.974;2024-01-15T13:36:35;10.73;;;4.47;;
9970;SDS011;5026;51.494;11.974;2024-01-15T13:39:04;10.10;;;3.97;;
9970;SDS011;5026;51.494;11.974;2024-01-15T13:41:33;5.13;;;3.77;;
9970;SDS011;5026;51.494;11.974;2024-01-15T13:44:02;8.77;;;3.97;;
9970;SDS011;5026;51.494;11.974;2024-01-15T13:46:29;7.63;;;3.70;;
9970;SDS011;5026;51.494;11.974;2024-01-15T13:48:56;5.10;;;3.53;;
9970;SDS011;5026;51.494;11.974;2024-01-15T13:51:23;6.20;;;3.83;;
9970;SDS011;5026;51.494;11.974;2024-01-15T13:53:50;4.50;;;3.27;;
9970;SDS011;5026;51.494;11.974;2024-01-15T13:56:18;6.63;;;3.10;;
9970;SDS011;5026;51.494;11.974;2024-01-15T13:58:45;5.17;;;2.80;;
9970;SDS011;5026;51.494;11.974;2024-01-15T14:01:16;5.73;;;2.80;;
9970;SDS011;5026;51.494;11.974;2024-01-15T14:03:43;5.30;;;3.77;;
9970;SDS011;5026;51.494;11.974;2024-01-15T14:06:10;4.37;;;3.40;;
9970;SDS011;5026;51.494;11.974;2024-01-15T14:08:37;5.80;;;3.00;;
9970;SDS011;5026;51.494;11.974;2024-01-15T14:11:04;5.30;;;2.83;;
9970;SDS011;5026;51.494;11.974;2024-01-15T14:13:32;2.57;;;2.37;;
9970;SDS011;5026;51.494;11.974;2024-01-15T14:15:59;4.67;;;2.30;;
9970;SDS011;5026;51.494;11.974;2024-01-15T14:18:28;3.83;;;2.60;;
9970;SDS011;5026;51.494;11.974;2024-01-15T14:20:55;5.57;;;2.90;;
9970;SDS011;5026;51.494;11.974;2024-01-15T14:23:22;6.30;;;2.97;;
9970;SDS011;5026;51.494;11.974;2024-01-15T14:25:49;2.23;;;2.03;;
9970;SDS011;5026;51.494;11.974;2024-01-15T14:28:18;4.07;;;2.33;;
9970;SDS011;5026;51.494;11.974;2024-01-15T14:30:45;4.17;;;2.73;;
9970;SDS011;5026;51.494;11.974;2024-01-15T14:33:12;4.07;;;2.77;;
9970;SDS011;5026;51.494;11.974;2024-01-15T14:35:40;2.93;;;2.30;;
9970;SDS011;5026;51.494;11.974;2024-01-15T14:38:07;5.80;;;2.57;;
9970;SDS011;5026;51.494;11.974;2024-01-15T14:40:34;2.63;;;2.13;;
9970;SDS011;5026;51.494;11.974;2024-01-15T14:43:02;4.27;;;2.50;;
9970;SDS011;5026;51.494;11.974;2024-01-15T14:45:29;5.87;;;2.93;;
9970;SDS011;5026;51.494;11.974;2024-01-15T14:47:56;4.33;;;2.60;;
9970;SDS011;5026;51.494;11.974;2024-01-15T14:50:23;3.37;;;2.37;;
9970;SDS011;5026;51.494;11.974;2024-01-15T14:52:52;3.97;;;2.37;;
9970;SDS011;5026;51.494;11.974;2024-01-15T14:55:19;3.70;;;2.77;;
9970;SDS011;5026;51.494;11.974;2024-01-15T14:57:48;4.87;;;2.43;;
9970;SDS011;5026;51.494;11.974;2024-01-15T15:00:15;7.43;;;3.37;;
9970;SDS011;5026;51.494;11.974;2024-01-15T15:02:43;4.80;;;2.43;;
9970;SDS011;5026;51.494;11.974;2024-01-15T15:05:10;3.90;;;2.90;;
9970;SDS011;5026;51.494;11.974;2024-01-15T15:07:38;6.17;;;2.87;;
9970;SDS011;5026;51.494;11.974;2024-01-15T15:10:08;5.13;;;2.60;;